sensor_id;sensor_type;location;lat;lon;timestamp;P1;durP1;ratioP1;P2;durP2;ratioP2
8401;SDS011;4238;48.404;9.498;2024-02-21T05:02:20;6.00;;;2.97;;
8401;SDS011;4238;48.404;9.498;2024-02-21T05:04:49;5.23;;;3.20;;
8401;SDS011;4238;48.404;9.498;2024-02-21T05:07:16;5.10;;;2.87;;
8401;SDS011;4238;48.404;9.498;2024-02-21T05:09:44;5.50;;;2.30;;
8401;SDS011;4238;48.404;9.498;2024-02-21T05:12:11;6.73;;;3.23;;
8401;SDS011;4238;48.404;9.498;2024-02-21T05:14:38;3.70;;;2.63;;
8401;SDS011;4238;48.404;9.498;2024-02-21T05:17:05;3.93;;;2.70;;
8401;SDS011;4238;48.404;9.498;2024-02-21T05:19:33;5.07;;;2.80;;
8401;SDS011;4238;48.404;9.498;2024-02-21T05:22:00;4.40;;;3.17;;
8401;SDS011;4238;48.404;9.498;2024-02-21T05:24:27;5.13;;;3.17;;
8401;SDS011;4238;48.404;9.498;2024-02-21T05:26:54;3.03;;;2.73;;
8401;SDS011;4238;48.404;9.498;2024-02-21T05:29:21;5.50;;;2.80;;
8401;SDS011;4238;48.404;9.498;2024-02-21T05:31:55;5.57;;;3.00;;
8401;SDS011;4238;48.404;9.498;2024-02-21T05:34:23;4.47;;;2.83;;
8401;SDS011;4238;48.404;9.498;2024-02-21T05:36:51;3.13;;;2.47;;
8401;SDS011;4238;48.404;9.498;2024-02-21T05:39:18;3.47;;;2.77;;
8401;SDS011;4238;48.404;9.498;2024-02-21T05:41:47;4.93;;;2.80;;
8401;SDS011;4238;48.404;9.498;2024-02-21T05:44:15;5.93;;;2.97;;
8401;SDS011;4238;48.404;9.498;2024-02-21T05:46:41;4.37;;;2.83;;
8401;SDS011;4238;48.404;9.498;2024-02-21T05:49:09;4.10;;;2.90;;
8401;SDS011;4238;48.404;9.498;2024-02-21T05:51:35;4.97;;;3.07;;
8401;SDS011;4238;48.404;9.498;2024-02-21T05:54:03;6.13;;;3.00;;
8401;SDS011;4238;48.404;9.498;2024-02-21T05:56:30;5.13;;;2.90;;
8401;SDS011;4238;48.404;9.498;2024-02-21T05:58:57;6.40;;;4.07;;
8401;SDS011;4238;48.404;9.498;2024-02-21T06:01:24;6.43;;;3.30;;
8401;SDS011;4238;48.404;9.498;2024-02-21T06:03:50;3.37;;;3.00;;
8401;SDS011;4238;48.404;9.498;2024-02-21T06:06:17;3.73;;;3.37;;
8401;SDS011;4238;48.404;9.498;2024-02-21T06:08:44;6.77;;;3.10;;
8401;SDS011;4238;48.404;9.498;2024-02-21T06:11:12;6.27;;;3.73;;
8401;SDS011;4238;48.404;9.498;2024-02-21T06:13:40;6.53;;;3.80;;
8401;SDS011;4238;48.404;9.498;2024-02-21T06:16:07;5.23;;;3.73;;
8401;SDS011;4238;48.404;9.498;2024-02-21T06:18:35;5.85;;;3.88;;
8401;SDS011;4238;48.404;9.498;2024-02-21T06:21:03;7.03;;;4.10;;
8401;SDS011;4238;48.404;9.498;2024-02-21T06:23:30;6.87;;;3.97;;
8401;SDS011;4238;48.404;9.498;2024-02-21T06:25:57;4.50;;;3.87;;
8401;SDS011;4238;48.404;9.498;2024-02-21T06:28:25;13.17;;;6.60;;
8401;SDS011;4238;48.404;9.498;2024-02-21T06:30:52;13.30;;;6.27;;
8401;SDS011;4238;48.404;9.498;2024-02-21T06:33:19;7.80;;;5.53;;
8401;SDS011;4238;48.404;9.498;2024-02-21T06:35:49;7.60;;;5.60;;
8401;SDS011;4238;48.404;9.498;2024-02-21T06:38:18;9.20;;;6.80;;
8401;SDS011;4238;48.404;9.498;2024-02-21T06:40:44;10.57;;;6.37;;
8401;SDS011;4238;48.404;9.498;2024-02-21T06:43:15;6.97;;;5.87;;
8401;SDS011;4238;48.404;9.498;2024-02-21T06:45:44;9.03;;;5.23;;
8401;SDS011;4238;48.404;9.498;2024-02-21T06:48:15;6.20;;;4.70;;
8401;SDS011;4238;48.404;9.498;2024-02-21T06:50:43;8.27;;;5.90;;
8401;SDS011;4238;48.404;9.498;2024-02-21T06:53:10;11.73;;;7.70;;
8401;SDS011;4238;48.404;9.498;2024-02-21T06:55:37;6.83;;;4.70;;
8401;SDS011;4238;48.404;9.498;2024-02-21T06:58:03;7.20;;;4.07;;
8401;SDS011;4238;48.404;9.498;2024-02-21T07:00:33;7.80;;;4.73;;
8401;SDS011;4238;48.404;9.498;2024-02-21T07:03:01;9.77;;;4.67;;
8401;SDS011;4238;48.404;9.498;2024-02-21T07:05:28;5.23;;;4.03;;
8401;SDS011;4238;48.404;9.498;2024-02-21T07:07:55;6.50;;;3.90;;
8401;SDS011;4238;48.404;9.498;2024-02-21T07:10:22;6.57;;;4.30;;
8401;SDS011;4238;48.404;9.498;2024-02-21T07:12:49;5.03;;;3.93;;
8401;SDS011;4238;48.404;9.498;2024-02-21T07:15:17;7.17;;;4.17;;
8401;SDS011;4238;48.404;9.498;2024-02-21T07:17:44;7.63;;;4.03;;
8401;SDS011;4238;48.404;9.498;2024-02-21T07:20:12;6.40;;;3.33;;
8401;SDS011;4238;48.404;9.498;2024-02-21T07:22:39;3.50;;;3.10;;
8401;SDS011;4238;48.404;9.498;2024-02-21T07:25:06;5.33;;;3.33;;
8401;SDS011;4238;48.404;9.498;2024-02-21T07:27:33;7.97;;;3.37;;
8401;SDS011;4238;48.404;9.498;2024-02-21T07:30:00;3.37;;;3.00;;
8401;SDS011;4238;48.404;9.498;2024-02-21T07:32:28;3.73;;;3.37;;
8401;SDS011;4238;48.404;9.498;2024-02-21T07:34:54;5.50;;;3.10;;
8401;SDS011;4238;48.404;9.498;2024-02-21T07:37:23;4.03;;;3.10;;
8401;SDS011;4238;48.404;9.498;2024-02-21T07:39:49;4.93;;;3.30;;
8401;SDS011;4238;48.404;9.498;2024-02-21T07:42:16;5.43;;;3.27;;
8401;SDS011;4238;48.404;9.498;2024-02-21T07:44:43;3.20;;;2.57;;
8401;SDS011;4238;48.404;9.498;2024-02-21T07:47:12;4.87;;;3.03;;
8401;SDS011;4238;48.404;9.498;2024-02-21T07:49:42;6.77;;;3.23;;
8401;SDS011;4238;48.404;9.498;2024-02-21T07:52:10;5.37;;;3.30;;
8401;SDS011;4238;48.404;9.498;2024-02-21T07:54:38;7.67;;;3.90;;
8401;SDS011;4238;48.404;9.498;2024-02-21T07:57:05;9.03;;;4.23;;
8401;SDS011;4238;48.404;9.498;2024-02-21T07:59:33;4.47;;;3.63;;
8401;SDS011;4238;48.404;9.498;2024-02-21T08:02:00;4.57;;;3.53;;
8401;SDS011;4238;48.404;9.498;2024-02-21T08:04:27;6.47;;;4.03;;
8401;SDS011;4238;48.404;9.498;2024-02-21T08:06:54;4.97;;;3.00;;
8401;SDS011;4238;48.404;9.498;2024-02-21T08:09:24;4.83;;;3.17;;
8401;SDS011;4238;48.404;9.498;2024-02-21T08:11:53;4.43;;;3.27;;
8401;SDS011;4238;48.404;9.498;2024-02-21T08:14:20;4.87;;;3.20;;
8401;SDS011;4238;48.404;9.498;2024-02-21T08:16:49;7.43;;;3.37;;
8401;SDS011;4238;48.404;9.498;2024-02-21T08:19:18;4.93;;;3.07;;
8401;SDS011;4238;48.404;9.498;2024-02-21T08:21:45;8.07;;;3.43;;
8401;SDS011;4238;48.404;9.498;2024-02-21T08:24:12;5.43;;;2.93;;
8401;SDS011;4238;48.404;9.498;2024-02-21T08:26:39;5.83;;;3.60;;
8401;SDS011;4238;48.404;9.498;2024-02-21T08:29:08;7.27;;;3.00;;
8401;SDS011;4238;48.404;9.498;2024-02-21T08:31:34;5.37;;;3.43;;
8401;SDS011;4238;48.404;9.498;2024-02-21T08:34:01;7.27;;;2.70;;
8401;SDS011;4238;48.404;9.498;2024-02-21T08:36:29;5.63;;;3.50;;
8401;SDS011;4238;48.404;9.498;2024-02-21T08:38:56;6.30;;;4.23;;
8401;SDS011;4238;48.404;9.498;2024-02-21T08:41:23;7.33;;;4.30;;
8401;SDS011;4238;48.404;9.498;2024-02-21T08:43:50;7.07;;;3.93;;
8401;SDS011;4238;48.404;9.498;2024-02-21T08:46:20;6.40;;;3.80;;
8401;SDS011;4238;48.404;9.498;2024-02-21T08:48:49;5.27;;;3.20;;
8401;SDS011;4238;48.404;9.498;2024-02-21T08:51:16;8.03;;;3.40;;
8401;SDS011;4238;48.404;9.498;2024-02-21T08:53:43;5.27;;;3.13;;
8401;SDS011;4238;48.404;9.498;2024-02-21T08:56:10;5.83;;;3.27;;
8401;SDS011;4238;48.404;9.498;2024-02-21T08:58:38;4.00;;;2.87;;
8401;SDS011;4238;48.404;9.498;2024-02-21T09:01:06;4.30;;;2.77;;
8401;SDS011;4238;48.404;9.498;2024-02-21T09:03:36;5.97;;;3.20;;
8401;SDS011;4238;48.404;9.498;2024-02-21T09:06:04;3.17;;;2.70;;
8401;SDS011;4238;48.404;9.498;2024-02-21T09:08:31;4.43;;;2.93;;
8401;SDS011;4238;48.404;9.498;2024-02-21T09:10:58;4.37;;;2.83;;
8401;SDS011;4238;48.404;9.498;2024-02-21T09:13:28;3.30;;;2.90;;
8401;SDS011;4238;48.404;9.498;2024-02-21T09:15:55;5.70;;;3.53;;
8401;SDS011;4238;48.404;9.498;2024-02-21T09:18:22;4.13;;;3.10;;
8401;SDS011;4238;48.404;9.498;2024-02-21T09:20:50;5.43;;;2.93;;
8401;SDS011;4238;48.404;9.498;2024-02-21T09:23:17;3.30;;;3.00;;
8401;SDS011;4238;48.404;9.498;2024-02-21T09:25:44;3.93;;;3.47;;
8401;SDS011;4238;48.404;9.498;2024-02-21T09:28:12;5.70;;;3.33;;
8401;SDS011;4238;48.404;9.498;2024-02-21T09:30:39;3.43;;;2.40;;
8401;SDS011;4238;48.404;9.498;2024-02-21T09:33:06;3.30;;;2.90;;
8401;SDS011;4238;48.404;9.498;2024-02-21T09:35:32;5.17;;;2.90;;
8401;SDS011;4238;48.404;9.498;2024-02-21T09:38:01;4.90;;;2.90;;
8401;SDS011;4238;48.404;9.498;2024-02-21T09:40:28;3.03;;;2.73;;
8401;SDS011;4238;48.404;9.498;2024-02-21T09:43:02;4.40;;;3.17;;
8401;SDS011;4238;48.404;9.498;2024-02-21T09:45:31;5.90;;;3.03;;
8401;SDS011;4238;48.404;9.498;2024-02-21T09:48:04;3.27;;;2.73;;
8401;SDS011;4238;48.404;9.498;2024-02-21T09:50:45;6.40;;;3.20;;
8401;SDS011;4238;48.404;9.498;2024-02-21T09:53:16;4.47;;;3.27;;
8401;SDS011;4238;48.404;9.498;2024-02-21T09:55:45;3.37;;;3.03;;
8401;SDS011;4238;48.404;9.498;2024-02-21T09:58:14;5.70;;;3.40;;
8401;SDS011;4238;48.404;9.498;2024-02-21T10:00:42;3.70;;;3.13;;
8401;SDS011;4238;48.404;9.498;2024-02-21T10:03:09;5.90;;;3.40;;
8401;SDS011;4238;48.404;9.498;2024-02-21T10:05:36;5.37;;;2.93;;
8401;SDS011;4238;48.404;9.498;2024-02-21T10:08:04;4.80;;;3.27;;
8401;SDS011;4238;48.404;9.498;2024-02-21T10:10:41;5.40;;;3.13;;
8401;SDS011;4238;48.404;9.498;2024-02-21T10:13:09;3.97;;;2.90;;
8401;SDS011;4238;48.404;9.498;2024-02-21T10:15:36;4.53;;;3.10;;
8401;SDS011;4238;48.404;9.498;2024-02-21T10:18:04;3.47;;;2.50;;
8401;SDS011;4238;48.404;9.498;2024-02-21T10:20:31;5.33;;;2.67;;
8401;SDS011;4238;48.404;9.498;2024-02-21T10:23:02;4.97;;;2.50;;
8401;SDS011;4238;48.404;9.498;2024-02-21T10:25:33;2.70;;;2.30;;
8401;SDS011;4238;48.404;9.498;2024-02-21T10:28:01;3.40;;;2.40;;
8401;SDS011;4238;48.404;9.498;2024-02-21T10:30:29;2.77;;;2.37;;
8401;SDS011;4238;48.404;9.498;2024-02-21T10:32:56;2.43;;;1.70;;
8401;SDS011;4238;48.404;9.498;2024-02-21T10:35:26;3.27;;;2.40;;
8401;SDS011;4238;48.404;9.498;2024-02-21T10:37:54;5.70;;;2.53;;
8401;SDS011;4238;48.404;9.498;2024-02-21T10:40:22;2.97;;;2.40;;
8401;SDS011;4238;48.404;9.498;2024-02-21T10:42:50;3.33;;;2.43;;
8401;SDS011;4238;48.404;9.498;2024-02-21T10:45:28;3.90;;;2.50;;
8401;SDS011;4238;48.404;9.498;2024-02-21T10:48:01;1.97;;;1.73;;
8401;SDS011;4238;48.404;9.498;2024-02-21T10:50:36;1.50;;;1.40;;
8401;SDS011;4238;48.404;9.498;2024-02-21T10:53:15;1.50;;;1.40;;
8401;SDS011;4238;48.404;9.498;2024-02-21T10:55:50;1.63;;;1.40;;
8401;SDS011;4238;48.404;9.498;2024-02-21T10:58:28;2.30;;;1.50;;
8401;SDS011;4238;48.404;9.498;2024-02-21T11:00:58;2.00;;;1.80;;
8401;SDS011;4238;48.404;9.498;2024-02-21T11:03:25;2.40;;;2.20;;
8401;SDS011;4238;48.404;9.498;2024-02-21T11:05:53;2.22;;;1.40;;
8401;SDS011;4238;48.404;9.498;2024-02-21T11:08:20;0.97;;;0.97;;
8401;SDS011;4238;48.404;9.498;2024-02-21T11:10:47;1.63;;;1.40;;
8401;SDS011;4238;48.404;9.498;2024-02-21T11:13:14;1.97;;;1.43;;
8401;SDS011;4238;48.404;9.498;2024-02-21T11:15:40;1.93;;;1.73;;
8401;SDS011;4238;48.404;9.498;2024-02-21T11:18:09;2.07;;;1.90;;
8401;SDS011;4238;48.404;9.498;2024-02-21T11:20:36;2.10;;;1.03;;
8401;SDS011;4238;48.404;9.498;2024-02-21T11:23:03;2.80;;;1.33;;
8401;SDS011;4238;48.404;9.498;2024-02-21T11:25:30;2.33;;;1.30;;
8401;SDS011;4238;48.404;9.498;2024-02-21T11:27:59;2.07;;;1.47;;
8401;SDS011;4238;48.404;9.498;2024-02-21T11:30:26;1.43;;;1.33;;
8401;SDS011;4238;48.404;9.498;2024-02-21T11:32:58;1.70;;;1.20;;
8401;SDS011;4238;48.404;9.498;2024-02-21T11:35:32;2.40;;;1.40;;
8401;SDS011;4238;48.404;9.498;2024-02-21T11:38:09;2.03;;;1.80;;
8401;SDS011;4238;48.404;9.498;2024-02-21T11:40:39;1.30;;;1.30;;
8401;SDS011;4238;48.404;9.498;2024-02-21T11:43:07;1.52;;;1.40;;
8401;SDS011;4238;48.404;9.498;2024-02-21T11:45:34;1.38;;;1.27;;
8401;SDS011;4238;48.404;9.498;2024-02-21T11:48:00;1.48;;;1.35;;
8401;SDS011;4238;48.404;9.498;2024-02-21T11:50:32;5.07;;;1.42;;
8401;SDS011;4238;48.404;9.498;2024-02-21T11:53:00;1.63;;;1.48;;
8401;SDS011;4238;48.404;9.498;2024-02-21T11:55:27;2.67;;;2.08;;
8401;SDS011;4238;48.404;9.498;2024-02-21T11:57:55;1.43;;;1.33;;
8401;SDS011;4238;48.404;9.498;2024-02-21T12:00:22;1.23;;;1.13;;
8401;SDS011;4238;48.404;9.498;2024-02-21T12:02:50;1.65;;;1.55;;
8401;SDS011;4238;48.404;9.498;2024-02-21T12:05:18;2.22;;;2.03;;
8401;SDS011;4238;48.404;9.498;2024-02-21T12:07:46;1.50;;;1.40;;
8401;SDS011;4238;48.404;9.498;2024-02-21T12:10:13;1.52;;;1.33;;
8401;SDS011;4238;48.404;9.498;2024-02-21T12:12:40;1.60;;;1.50;;
8401;SDS011;4238;48.404;9.498;2024-02-21T12:15:07;1.20;;;1.15;;
8401;SDS011;4238;48.404;9.498;2024-02-21T12:17:35;2.57;;;2.37;;
8401;SDS011;4238;48.404;9.498;2024-02-21T12:20:01;1.92;;;1.73;;
8401;SDS011;4238;48.404;9.498;2024-02-21T12:22:33;2.80;;;2.60;;
8401;SDS011;4238;48.404;9.498;2024-02-21T12:25:04;1.50;;;1.40;;
8401;SDS011;4238;48.404;9.498;2024-02-21T12:27:42;1.48;;;1.38;;
8401;SDS011;4238;48.404;9.498;2024-02-21T12:30:10;2.60;;;1.42;;
8401;SDS011;4238;48.404;9.498;2024-02-21T12:32:37;1.45;;;1.27;;
8401;SDS011;4238;48.404;9.498;2024-02-21T12:35:04;1.63;;;1.10;;
8401;SDS011;4238;48.404;9.498;2024-02-21T12:37:32;1.63;;;1.52;;
8401;SDS011;4238;48.404;9.498;2024-02-21T12:39:59;2.28;;;1.92;;
8401;SDS011;4238;48.404;9.498;2024-02-21T12:42:27;4.68;;;3.90;;
8401;SDS011;4238;48.404;9.498;2024-02-21T12:44:54;2.33;;;1.83;;
8401;SDS011;4238;48.404;9.498;2024-02-21T12:47:21;2.45;;;1.52;;
8401;SDS011;4238;48.404;9.498;2024-02-21T12:49:49;2.13;;;1.50;;
8401;SDS011;4238;48.404;9.498;2024-02-21T12:52:16;2.72;;;1.38;;
8401;SDS011;4238;48.404;9.498;2024-02-21T12:54:43;1.27;;;1.17;;
8401;SDS011;4238;48.404;9.498;2024-02-21T12:57:10;1.90;;;1.30;;
8401;SDS011;4238;48.404;9.498;2024-02-21T12:59:38;1.45;;;1.35;;
8401;SDS011;4238;48.404;9.498;2024-02-21T13:02:05;1.75;;;1.42;;
8401;SDS011;4238;48.404;9.498;2024-02-21T13:04:33;1.27;;;1.10;;
8401;SDS011;4238;48.404;9.498;2024-02-21T13:07:00;1.67;;;1.58;;
8401;SDS011;4238;48.404;9.498;2024-02-21T13:09:27;1.52;;;1.42;;
8401;SDS011;4238;48.404;9.498;2024-02-21T13:11:53;1.60;;;1.50;;
8401;SDS011;4238;48.404;9.498;2024-02-21T13:14:21;1.17;;;1.17;;
8401;SDS011;4238;48.404;9.498;2024-02-21T13:16:49;1.27;;;1.27;;
8401;SDS011;4238;48.404;9.498;2024-02-21T13:19:15;3.03;;;1.55;;
8401;SDS011;4238;48.404;9.498;2024-02-21T13:21:43;1.73;;;1.63;;
8401;SDS011;4238;48.404;9.498;2024-02-21T13:24:09;1.33;;;1.23;;
8401;SDS011;4238;48.404;9.498;2024-02-21T13:26:36;2.00;;;1.50;;
8401;SDS011;4238;48.404;9.498;2024-02-21T13:29:03;1.70;;;1.48;;
8401;SDS011;4238;48.404;9.498;2024-02-21T13:31:30;2.08;;;1.40;;
8401;SDS011;4238;48.404;9.498;2024-02-21T13:33:58;3.83;;;1.80;;
8401;SDS011;4238;48.404;9.498;2024-02-21T13:36:25;1.70;;;1.60;;
8401;SDS011;4238;48.404;9.498;2024-02-21T13:38:52;1.27;;;1.00;;
8401;SDS011;4238;48.404;9.498;2024-02-21T13:41:19;2.00;;;1.50;;
8401;SDS011;4238;48.404;9.498;2024-02-21T13:43:47;1.50;;;1.40;;
8401;SDS011;4238;48.404;9.498;2024-02-21T13:46:14;1.57;;;1.10;;
8401;SDS011;4238;48.404;9.498;2024-02-21T13:48:40;2.00;;;1.90;;
8401;SDS011;4238;48.404;9.498;2024-02-21T13:51:09;1.70;;;1.60;;
8401;SDS011;4238;48.404;9.498;2024-02-21T13:53:36;1.70;;;1.40;;
8401;SDS011;4238;48.404;9.498;2024-02-21T13:56:04;1.20;;;1.10;;
8401;SDS011;4238;48.404;9.498;2024-02-21T13:58:31;2.23;;;1.10;;
8401;SDS011;4238;48.404;9.498;2024-02-21T14:00:57;1.40;;;1.30;;
8401;SDS011;4238;48.404;9.498;2024-02-21T14:03:25;1.50;;;1.40;;
8401;SDS011;4238;48.404;9.498;2024-02-21T14:05:52;1.50;;;1.40;;
8401;SDS011;4238;48.404;9.498;2024-02-21T14:08:21;2.33;;;1.50;;
8401;SDS011;4238;48.404;9.498;2024-02-21T14:10:49;1.33;;;1.27;;
8401;SDS011;4238;48.404;9.498;2024-02-21T14:13:15;1.77;;;1.03;;
8401;SDS011;4238;48.404;9.498;2024-02-21T14:15:43;1.50;;;1.13;;
8401;SDS011;4238;48.404;9.498;2024-02-21T14:18:11;1.93;;;1.37;;
8401;SDS011;4238;48.404;9.498;2024-02-21T14:20:38;1.60;;;1.40;;
8401;SDS011;4238;48.404;9.498;2024-02-21T14:23:05;1.57;;;1.47;;
8401;SDS011;4238;48.404;9.498;2024-02-21T14:25:33;2.03;;;1.87;;
8401;SDS011;4238;48.404;9.498;2024-02-21T14:28:00;1.27;;;1.17;;
8401;SDS011;4238;48.404;9.498;2024-02-21T14:30:27;2.60;;;1.33;;
8401;SDS011;4238;48.404;9.498;2024-02-21T14:32:54;1.43;;;1.40;;
8401;SDS011;4238;48.404;9.498;2024-02-21T14:35:21;1.70;;;1.60;;
8401;SDS011;4238;48.404;9.498;2024-02-21T14:37:48;2.20;;;1.70;;
8401;SDS011;4238;48.404;9.498;2024-02-21T14:40:15;1.63;;;1.53;;
8401;SDS011;4238;48.404;9.498;2024-02-21T14:42:43;1.50;;;1.23;;
8401;SDS011;4238;48.404;9.498;2024-02-21T14:45:10;2.03;;;1.30;;
8401;SDS011;4238;48.404;9.498;2024-02-21T14:47:36;1.50;;;1.42;;
8401;SDS011;4238;48.404;9.498;2024-02-21T14:50:04;1.97;;;1.30;;
8401;SDS011;4238;48.404;9.498;2024-02-21T14:52:32;1.77;;;1.67;;
8401;SDS011;4238;48.404;9.498;2024-02-21T14:55:00;1.83;;;1.13;;
8401;SDS011;4238;48.404;9.498;2024-02-21T14:57:28;1.50;;;1.40;;
8401;SDS011;4238;48.404;9.498;2024-02-21T14:59:56;1.77;;;1.60;;
8401;SDS011;4238;48.404;9.498;2024-02-21T15:02:24;1.30;;;1.30;;
8401;SDS011;4238;48.404;9.498;2024-02-21T15:04:52;1.70;;;1.60;;
8401;SDS011;4238;48.404;9.498;2024-02-21T15:07:19;1.80;;;1.70;;
8401;SDS011;4238;48.404;9.498;2024-02-21T15:09:49;2.40;;;2.20;;
8401;SDS011;4238;48.404;9.498;2024-02-21T15:12:16;1.60;;;1.50;;
8401;SDS011;4238;48.404;9.498;2024-02-21T15:14:43;1.93;;;1.83;;
8401;SDS011;4238;48.404;9.498;2024-02-21T15:17:12;2.27;;;1.70;;
8401;SDS011;4238;48.404;9.498;2024-02-21T15:19:41;2.07;;;1.50;;
8401;SDS011;4238;48.404;9.498;2024-02-21T15:22:10;1.47;;;1.47;;
8401;SDS011;4238;48.404;9.498;2024-02-21T15:24:37;1.80;;;1.70;;
8401;SDS011;4238;48.404;9.498;2024-02-21T15:27:04;2.90;;;1.63;;
8401;SDS011;4238;48.404;9.498;2024-02-21T15:29:32;1.93;;;1.83;;
8401;SDS011;4238;48.404;9.498;2024-02-21T15:31:59;1.67;;;1.57;;
8401;SDS011;4238;48.404;9.498;2024-02-21T15:34:27;2.87;;;2.57;;
8401;SDS011;4238;48.404;9.498;2024-02-21T15:36:54;3.03;;;1.93;;
8401;SDS011;4238;48.404;9.498;2024-02-21T15:39:20;1.80;;;1.70;;
8401;SDS011;4238;48.404;9.498;2024-02-21T15:41:48;1.73;;;1.63;;
8401;SDS011;4238;48.404;9.498;2024-02-21T15:44:15;1.93;;;1.73;;
8401;SDS011;4238;48.404;9.498;2024-02-21T15:46:42;2.10;;;2.00;;
8401;SDS011;4238;48.404;9.498;2024-02-21T15:49:08;2.17;;;2.07;;
8401;SDS011;4238;48.404;9.498;2024-02-21T15:51:37;2.40;;;2.10;;
8401;SDS011;4238;48.404;9.498;2024-02-21T15:54:06;3.57;;;2.00;;
8401;SDS011;4238;48.404;9.498;2024-02-21T15:56:33;2.03;;;1.90;;
8401;SDS011;4238;48.404;9.498;2024-02-21T15:59:00;2.10;;;2.00;;
8401;SDS011;4238;48.404;9.498;2024-02-21T16:01:28;3.73;;;2.20;;
8401;SDS011;4238;48.404;9.498;2024-02-21T16:03:58;2.50;;;2.20;;
8401;SDS011;4238;48.404;9.498;2024-02-21T16:06:25;2.83;;;2.17;;
8401;SDS011;4238;48.404;9.498;2024-02-21T16:08:54;2.53;;;2.17;;
8401;SDS011;4238;48.404;9.498;2024-02-21T16:11:21;3.03;;;2.70;;
8401;SDS011;4238;48.404;9.498;2024-02-21T16:13:48;2.37;;;2.17;;
8401;SDS011;4238;48.404;9.498;2024-02-21T16:16:15;2.43;;;2.27;;
8401;SDS011;4238;48.404;9.498;2024-02-21T16:18:42;2.20;;;2.10;;
8401;SDS011;4238;48.404;9.498;2024-02-21T16:21:10;2.87;;;2.67;;
8401;SDS011;4238;48.404;9.498;2024-02-21T16:23:38;3.03;;;2.40;;
8401;SDS011;4238;48.404;9.498;2024-02-21T16:26:07;2.73;;;2.53;;
8401;SDS011;4238;48.404;9.498;2024-02-21T16:28:35;2.70;;;2.33;;
8401;SDS011;4238;48.404;9.498;2024-02-21T16:31:02;3.40;;;3.00;;
8401;SDS011;4238;48.404;9.498;2024-02-21T16:33:29;4.87;;;2.90;;
8401;SDS011;4238;48.404;9.498;2024-02-21T16:35:56;2.70;;;2.50;;
8401;SDS011;4238;48.404;9.498;2024-02-21T16:38:23;2.80;;;2.60;;
8401;SDS011;4238;48.404;9.498;2024-02-21T16:40:51;3.53;;;2.90;;
8401;SDS011;4238;48.404;9.498;2024-02-21T16:43:19;3.13;;;2.53;;
8401;SDS011;4238;48.404;9.498;2024-02-21T16:45:47;2.73;;;2.50;;
8401;SDS011;4238;48.404;9.498;2024-02-21T16:48:14;2.73;;;2.50;;
8401;SDS011;4238;48.404;9.498;2024-02-21T16:50:41;3.00;;;2.73;;
8401;SDS011;4238;48.404;9.498;2024-02-21T16:53:08;2.67;;;2.47;;
8401;SDS011;4238;48.404;9.498;2024-02-21T16:55:34;3.40;;;2.67;;
8401;SDS011;4238;48.404;9.498;2024-02-21T16:58:01;3.30;;;2.92;;
8401;SDS011;4238;48.404;9.498;2024-02-21T17:00:30;2.90;;;2.70;;
8401;SDS011;4238;48.404;9.498;2024-02-21T17:02:58;2.73;;;2.47;;
8401;SDS011;4238;48.404;9.498;2024-02-21T17:05:24;3.07;;;2.70;;
8401;SDS011;4238;48.404;9.498;2024-02-21T17:07:51;2.87;;;2.53;;
8401;SDS011;4238;48.404;9.498;2024-02-21T17:10:18;2.40;;;2.30;;
8401;SDS011;4238;48.404;9.498;2024-02-21T17:12:45;3.33;;;2.47;;
8401;SDS011;4238;48.404;9.498;2024-02-21T17:15:12;2.03;;;1.93;;
8401;SDS011;4238;48.404;9.498;2024-02-21T17:17:42;4.03;;;2.47;;
8401;SDS011;4238;48.404;9.498;2024-02-21T17:20:09;2.23;;;1.97;;
8401;SDS011;4238;48.404;9.498;2024-02-21T17:22:36;2.53;;;2.33;;
8401;SDS011;4238;48.404;9.498;2024-02-21T17:25:03;2.83;;;2.63;;
8401;SDS011;4238;48.404;9.498;2024-02-21T17:27:34;2.53;;;2.37;;
8401;SDS011;4238;48.404;9.498;2024-02-21T17:30:02;2.40;;;2.20;;
8401;SDS011;4238;48.404;9.498;2024-02-21T17:32:29;2.07;;;1.90;;
8401;SDS011;4238;48.404;9.498;2024-02-21T17:34:57;2.60;;;2.30;;
8401;SDS011;4238;48.404;9.498;2024-02-21T17:37:24;2.73;;;2.50;;
8401;SDS011;4238;48.404;9.498;2024-02-21T17:39:51;2.83;;;2.13;;
8401;SDS011;4238;48.404;9.498;2024-02-21T17:42:17;2.00;;;1.90;;
8401;SDS011;4238;48.404;9.498;2024-02-21T17:44:44;3.97;;;2.40;;
8401;SDS011;4238;48.404;9.498;2024-02-21T17:47:12;5.63;;;4.00;;
8401;SDS011;4238;48.404;9.498;2024-02-21T17:49:40;3.00;;;2.80;;
8401;SDS011;4238;48.404;9.498;2024-02-21T17:52:10;6.00;;;4.10;;
8401;SDS011;4238;48.404;9.498;2024-02-21T17:54:38;4.53;;;4.00;;
8401;SDS011;4238;48.404;9.498;2024-02-21T17:57:09;4.03;;;2.77;;
8401;SDS011;4238;48.404;9.498;2024-02-21T17:59:38;3.40;;;3.03;;
8401;SDS011;4238;48.404;9.498;2024-02-21T18:02:05;5.20;;;3.47;;
8401;SDS011;4238;48.404;9.498;2024-02-21T18:04:32;2.80;;;2.60;;
8401;SDS011;4238;48.404;9.498;2024-02-21T18:07:00;2.67;;;2.47;;
8401;SDS011;4238;48.404;9.498;2024-02-21T18:09:29;3.30;;;3.00;;
8401;SDS011;4238;48.404;9.498;2024-02-21T18:11:56;4.20;;;3.33;;
8401;SDS011;4238;48.404;9.498;2024-02-21T18:14:23;4.07;;;3.67;;
8401;SDS011;4238;48.404;9.498;2024-02-21T18:16:50;3.30;;;3.00;;
8401;SDS011;4238;48.404;9.498;2024-02-21T18:19:16;3.33;;;2.60;;
8401;SDS011;4238;48.404;9.498;2024-02-21T18:21:44;3.40;;;3.20;;
8401;SDS011;4238;48.404;9.498;2024-02-21T18:24:11;4.20;;;3.70;;
8401;SDS011;4238;48.404;9.498;2024-02-21T18:26:39;3.40;;;3.10;;
8401;SDS011;4238;48.404;9.498;2024-02-21T18:29:06;5.50;;;4.00;;
8401;SDS011;4238;48.404;9.498;2024-02-21T18:31:34;3.30;;;3.00;;
8401;SDS011;4238;48.404;9.498;2024-02-21T18:34:02;3.67;;;3.37;;
8401;SDS011;4238;48.404;9.498;2024-02-21T18:36:29;3.90;;;3.60;;
8401;SDS011;4238;48.404;9.498;2024-02-21T18:38:56;3.63;;;2.93;;
8401;SDS011;4238;48.404;9.498;2024-02-21T18:41:23;3.50;;;3.20;;
8401;SDS011;4238;48.404;9.498;2024-02-21T18:43:51;2.80;;;2.60;;
8401;SDS011;4238;48.404;9.498;2024-02-21T18:46:18;3.27;;;3.00;;
8401;SDS011;4238;48.404;9.498;2024-02-21T18:48:45;6.13;;;4.30;;
8401;SDS011;4238;48.404;9.498;2024-02-21T18:51:12;3.67;;;3.47;;
8401;SDS011;4238;48.404;9.498;2024-02-21T18:53:39;6.37;;;4.50;;
8401;SDS011;4238;48.404;9.498;2024-02-21T18:56:06;5.37;;;3.93;;
8401;SDS011;4238;48.404;9.498;2024-02-21T18:58:34;6.57;;;5.23;;
8401;SDS011;4238;48.404;9.498;2024-02-21T19:01:03;5.77;;;4.40;;
8401;SDS011;4238;48.404;9.498;2024-02-21T19:03:30;5.60;;;4.97;;
8401;SDS011;4238;48.404;9.498;2024-02-21T19:05:56;8.00;;;5.60;;
8401;SDS011;4238;48.404;9.498;2024-02-21T19:08:23;4.90;;;4.13;;
8401;SDS011;4238;48.404;9.498;2024-02-21T19:10:50;4.70;;;4.20;;
8401;SDS011;4238;48.404;9.498;2024-02-21T19:13:17;4.13;;;3.50;;
8401;SDS011;4238;48.404;9.498;2024-02-21T19:15:45;3.50;;;3.20;;
8401;SDS011;4238;48.404;9.498;2024-02-21T19:18:13;4.17;;;3.33;;
8401;SDS011;4238;48.404;9.498;2024-02-21T19:20:40;3.80;;;3.00;;
8401;SDS011;4238;48.404;9.498;2024-02-21T19:23:07;3.67;;;3.30;;
8401;SDS011;4238;48.404;9.498;2024-02-21T19:25:34;3.83;;;3.50;;
8401;SDS011;4238;48.404;9.498;2024-02-21T19:28:00;3.37;;;3.07;;
8401;SDS011;4238;48.404;9.498;2024-02-21T19:30:28;3.13;;;2.90;;
8401;SDS011;4238;48.404;9.498;2024-02-21T19:32:55;4.63;;;3.60;;
8401;SDS011;4238;48.404;9.498;2024-02-21T19:35:23;3.30;;;3.00;;
8401;SDS011;4238;48.404;9.498;2024-02-21T19:37:50;3.30;;;3.10;;
8401;SDS011;4238;48.404;9.498;2024-02-21T19:40:17;3.13;;;2.93;;
8401;SDS011;4238;48.404;9.498;2024-02-21T19:42:43;4.03;;;2.83;;
8401;SDS011;4238;48.404;9.498;2024-02-21T19:45:10;3.20;;;2.80;;
8401;SDS011;4238;48.404;9.498;2024-02-21T19:47:38;3.10;;;2.50;;
8401;SDS011;4238;48.404;9.498;2024-02-21T19:50:07;4.23;;;2.73;;
8401;SDS011;4238;48.404;9.498;2024-02-21T19:52:36;9.10;;;7.53;;
8401;SDS011;4238;48.404;9.498;2024-02-21T19:55:03;5.67;;;3.57;;
8401;SDS011;4238;48.404;9.498;2024-02-21T19:57:30;3.80;;;3.50;;
8401;SDS011;4238;48.404;9.498;2024-02-21T19:59:57;25.30;;;15.67;;
8401;SDS011;4238;48.404;9.498;2024-02-21T20:02:24;11.80;;;9.90;;
8401;SDS011;4238;48.404;9.498;2024-02-21T20:04:51;8.40;;;6.43;;
8401;SDS011;4238;48.404;9.498;2024-02-21T20:07:18;10.63;;;6.30;;
8401;SDS011;4238;48.404;9.498;2024-02-21T20:09:47;3.53;;;3.23;;
8401;SDS011;4238;48.404;9.498;2024-02-21T20:12:14;3.67;;;3.20;;
8401;SDS011;4238;48.404;9.498;2024-02-21T20:14:42;3.67;;;3.37;;
8401;SDS011;4238;48.404;9.498;2024-02-21T20:17:09;3.37;;;3.07;;
8401;SDS011;4238;48.404;9.498;2024-02-21T20:19:36;4.17;;;3.10;;